Current Weather

Skylark Fld

Killeen, Texas (KILE)

Report from: Monday, September 26, 2022 6:56 PM CDT
Current time: Monday, September 26, 2022 7:52 PM CDT

Nearby weather
Weather history
Weather forecast

Temperature27.2°C (81.0°F)
Heat index26.6°C (79.9°F)
Dew point5.0°C (41.0°F)
Winds 11 kts (5.7 m/s, 12.7 mph) North-Northeast (20°)
Visibility10 mi. (16.1 km)
Clouds Sky clear
Altimeter30.06 in.Hg (1018 mB)
Relative humidity24 %
Density altitude1,380 ft. (421 m)
Sea-level pressure101.7 kPa (1017 mB, 30.03 in.Hg)
Max temp last 6 hours31.7°C (89.1°F)
Min temp last 6 hours27.2°C (81.0°F)
Remarks Fully automated report
Automated weather observing station with precipitation discriminator
Pressure rising more quickly
Flight conditions Visual Meteorological Conditions
Raw dataKILE 262356Z AUTO 02011KT 10SM CLR 27/05 A3006 RMK AO2 SLP169 T02720050 10317 20272 53006
An unhandled exception has occurred. See browser dev tools for details. Reload 🗙